Groton New London Airport
KGON : now visible

Airfield :











YOU CAN JOIN US ON...

 
LOGIN :

Register | Disclaimer

   EN    FR    IT 

 









Legend :    VFR   Marginal VFR   IFR   Intensive IFR   Very Intensive IFR
Visi :
Ceiling :
>= 8 km
>= 3000ft
5 to 8 km
1000 to 3000 ft
1500m to 5 km
500 to 1000 ft
800 to 1500m
200 to 500 ft
< 800m
< 200 ft
Symbols :   Thunderstorms  Fog  Heavy snow  Heavy precipitations  Wind > 20 kt






- Airport Elevation : 9 ft
- IATA code : GON


KGON - Groton New London

CURRENT METAR :
  • 050056Z 14003KT 10SM FEW090 19/18 A2993 RMK AO2 SLP135 T01940178 $

EXPIRED METARs :
  • 042356Z 15005KT 10SM SCT090 21/18 A2992 RMK AO2 SLP132 T02060178 10233 20206 53005 $
  • 042256Z 16005KT 10SM CLR 21/18 A2992 RMK AO2 SLP131 T02110178 $

TAF KGON
Valid from the 05 at 00:00 until the 06 at 00:00 UTC


042327Z 0500/0524 14005KT P6SM FEW060
FM050100 VRB03KT P6SM SCT250
FM050400 VRB03KT 4SM BR SCT008
FM050600 VRB03KT 2SM BR BKN008
FM051400 20007KT 6SM BR SCT015
FM051600 20007KT P6SM FEW250
KZBW FIR / North America



MET'MAP, your aeronautical weather chart ! - Copyright ORBIFLY December 2007 - Disclaimer

ORBIFLY MET'MAP TEAM :

Programming & Development : Alexandra Zaïnal
Concept & original design : Baudouin d'Aumeries
Assistance for programming : Marc-Olivier Méhu
Technical & hardware support : Manuel Goepfert

Contact : metmap@orbifly.com




SOURCES & CREDITS :

   NOAA       Earth
Advisory